sensor_id;sensor_type;location;lat;lon;timestamp;pressure;altitude;pressure_sealevel;temperature;humidity
5595;BME280;1003;48.002;7.788;2023-06-22T00:01:33;98776.16;;;19.93;100.00
5595;BME280;1003;48.002;7.788;2023-06-22T00:04:00;98766.44;;;19.84;100.00
5595;BME280;1003;48.002;7.788;2023-06-22T00:06:27;98775.16;;;19.80;100.00
5595;BME280;1003;48.002;7.788;2023-06-22T00:08:54;98767.84;;;19.74;100.00
5595;BME280;1003;48.002;7.788;2023-06-22T00:11:21;98755.31;;;19.69;100.00
5595;BME280;1003;48.002;7.788;2023-06-22T00:13:49;98763.97;;;19.66;100.00
5595;BME280;1003;48.002;7.788;2023-06-22T00:16:16;98764.88;;;19.65;100.00
5595;BME280;1003;48.002;7.788;2023-06-22T00:18:46;98763.41;;;19.61;100.00
5595;BME280;1003;48.002;7.788;2023-06-22T00:21:14;98755.06;;;19.58;100.00
5595;BME280;1003;48.002;7.788;2023-06-22T00:23:41;98754.22;;;19.59;100.00
5595;BME280;1003;48.002;7.788;2023-06-22T00:26:09;98750.88;;;19.57;100.00
5595;BME280;1003;48.002;7.788;2023-06-22T00:28:37;98756.97;;;19.54;100.00
5595;BME280;1003;48.002;7.788;2023-06-22T00:31:04;98753.75;;;19.51;100.00
5595;BME280;1003;48.002;7.788;2023-06-22T00:33:31;98756.22;;;19.52;100.00
5595;BME280;1003;48.002;7.788;2023-06-22T00:35:59;98761.63;;;19.46;100.00
5595;BME280;1003;48.002;7.788;2023-06-22T00:38:28;98756.47;;;19.32;100.00
5595;BME280;1003;48.002;7.788;2023-06-22T00:40:55;98760.81;;;19.30;100.00
5595;BME280;1003;48.002;7.788;2023-06-22T00:43:22;98769.81;;;19.20;100.00
5595;BME280;1003;48.002;7.788;2023-06-22T00:45:49;98784.16;;;19.05;100.00
5595;BME280;1003;48.002;7.788;2023-06-22T00:48:17;98763.06;;;19.03;100.00
5595;BME280;1003;48.002;7.788;2023-06-22T00:50:44;98772.06;;;18.93;100.00
5595;BME280;1003;48.002;7.788;2023-06-22T00:53:13;98769.47;;;18.94;100.00
5595;BME280;1003;48.002;7.788;2023-06-22T00:55:42;98781.34;;;18.94;100.00
5595;BME280;1003;48.002;7.788;2023-06-22T00:58:11;98787.44;;;18.91;100.00
5595;BME280;1003;48.002;7.788;2023-06-22T01:00:40;98775.59;;;18.90;100.00
5595;BME280;1003;48.002;7.788;2023-06-22T01:03:07;98778.50;;;18.82;100.00
5595;BME280;1003;48.002;7.788;2023-06-22T01:05:35;98789.69;;;18.80;100.00
5595;BME280;1003;48.002;7.788;2023-06-22T01:08:23;98780.25;;;18.82;100.00
5595;BME280;1003;48.002;7.788;2023-06-22T01:11:05;98785.03;;;18.88;100.00
5595;BME280;1003;48.002;7.788;2023-06-22T01:13:51;98803.44;;;18.93;100.00
5595;BME280;1003;48.002;7.788;2023-06-22T01:16:26;98844.75;;;19.00;100.00
5595;BME280;1003;48.002;7.788;2023-06-22T01:18:57;98838.66;;;19.02;100.00
5595;BME280;1003;48.002;7.788;2023-06-22T01:21:31;98822.47;;;19.03;100.00
5595;BME280;1003;48.002;7.788;2023-06-22T01:24:14;98821.50;;;19.06;100.00
5595;BME280;1003;48.002;7.788;2023-06-22T01:26:54;98817.81;;;19.11;100.00
5595;BME280;1003;48.002;7.788;2023-06-22T01:29:29;98814.09;;;19.01;100.00
5595;BME280;1003;48.002;7.788;2023-06-22T01:31:59;98806.91;;;18.92;100.00
5595;BME280;1003;48.002;7.788;2023-06-22T01:34:29;98809.44;;;18.92;100.00
5595;BME280;1003;48.002;7.788;2023-06-22T01:36:58;98799.34;;;18.91;100.00
5595;BME280;1003;48.002;7.788;2023-06-22T01:39:27;98789.06;;;18.92;100.00
5595;BME280;1003;48.002;7.788;2023-06-22T01:41:54;98777.09;;;18.94;100.00
5595;BME280;1003;48.002;7.788;2023-06-22T01:44:22;98795.81;;;18.93;100.00
5595;BME280;1003;48.002;7.788;2023-06-22T01:46:53;98807.19;;;19.03;100.00
5595;BME280;1003;48.002;7.788;2023-06-22T01:49:20;98811.63;;;19.00;100.00
5595;BME280;1003;48.002;7.788;2023-06-22T01:51:48;98791.78;;;18.89;100.00
5595;BME280;1003;48.002;7.788;2023-06-22T01:54:15;98772.28;;;18.88;100.00
5595;BME280;1003;48.002;7.788;2023-06-22T01:56:42;98773.88;;;18.91;100.00
5595;BME280;1003;48.002;7.788;2023-06-22T01:59:18;98781.72;;;19.03;100.00
5595;BME280;1003;48.002;7.788;2023-06-22T02:02:00;98773.91;;;19.06;100.00
5595;BME280;1003;48.002;7.788;2023-06-22T02:04:34;98757.59;;;18.93;100.00
5595;BME280;1003;48.002;7.788;2023-06-22T02:07:09;98757.00;;;18.88;100.00
5595;BME280;1003;48.002;7.788;2023-06-22T02:09:44;98755.69;;;18.81;100.00
5595;BME280;1003;48.002;7.788;2023-06-22T02:12:17;98753.47;;;18.75;100.00
5595;BME280;1003;48.002;7.788;2023-06-22T02:14:45;98755.22;;;18.55;100.00
5595;BME280;1003;48.002;7.788;2023-06-22T02:17:17;98752.09;;;18.50;100.00
5595;BME280;1003;48.002;7.788;2023-06-22T02:19:44;98745.53;;;18.46;100.00
5595;BME280;1003;48.002;7.788;2023-06-22T02:22:11;98733.75;;;18.44;100.00
5595;BME280;1003;48.002;7.788;2023-06-22T02:24:39;98732.03;;;18.44;100.00
5595;BME280;1003;48.002;7.788;2023-06-22T02:27:06;98736.09;;;18.48;100.00
5595;BME280;1003;48.002;7.788;2023-06-22T02:29:34;98734.88;;;18.55;100.00
5595;BME280;1003;48.002;7.788;2023-06-22T02:32:01;98721.13;;;18.42;100.00
5595;BME280;1003;48.002;7.788;2023-06-22T02:34:29;98715.56;;;18.34;100.00
5595;BME280;1003;48.002;7.788;2023-06-22T02:36:56;98705.56;;;18.31;100.00
5595;BME280;1003;48.002;7.788;2023-06-22T02:39:26;98704.53;;;18.35;100.00
5595;BME280;1003;48.002;7.788;2023-06-22T02:41:54;98698.34;;;18.39;100.00
5595;BME280;1003;48.002;7.788;2023-06-22T02:44:22;98704.53;;;18.35;100.00
5595;BME280;1003;48.002;7.788;2023-06-22T02:46:49;98707.81;;;18.37;100.00
5595;BME280;1003;48.002;7.788;2023-06-22T02:49:16;98704.75;;;18.30;100.00
5595;BME280;1003;48.002;7.788;2023-06-22T02:51:46;98697.84;;;18.15;100.00
5595;BME280;1003;48.002;7.788;2023-06-22T02:54:14;98704.50;;;18.18;100.00
5595;BME280;1003;48.002;7.788;2023-06-22T02:56:42;98704.81;;;18.12;100.00
5595;BME280;1003;48.002;7.788;2023-06-22T02:59:10;98702.56;;;18.05;100.00
5595;BME280;1003;48.002;7.788;2023-06-22T03:01:37;98706.00;;;18.04;100.00
5595;BME280;1003;48.002;7.788;2023-06-22T03:04:06;98700.00;;;18.05;100.00
5595;BME280;1003;48.002;7.788;2023-06-22T03:06:34;98697.34;;;18.08;100.00
5595;BME280;1003;48.002;7.788;2023-06-22T03:09:04;98701.66;;;18.06;100.00
5595;BME280;1003;48.002;7.788;2023-06-22T03:11:32;98698.22;;;18.07;100.00
5595;BME280;1003;48.002;7.788;2023-06-22T03:13:59;98716.84;;;18.08;100.00
5595;BME280;1003;48.002;7.788;2023-06-22T03:16:27;98721.41;;;18.01;100.00
5595;BME280;1003;48.002;7.788;2023-06-22T03:18:54;98705.63;;;17.95;100.00
5595;BME280;1003;48.002;7.788;2023-06-22T03:21:23;98715.72;;;17.96;100.00
5595;BME280;1003;48.002;7.788;2023-06-22T03:23:50;98708.91;;;17.97;100.00
5595;BME280;1003;48.002;7.788;2023-06-22T03:26:19;98701.94;;;18.00;100.00
5595;BME280;1003;48.002;7.788;2023-06-22T03:28:46;98700.00;;;18.05;100.00
5595;BME280;1003;48.002;7.788;2023-06-22T03:31:13;98704.19;;;18.06;100.00
5595;BME280;1003;48.002;7.788;2023-06-22T03:33:40;98706.81;;;18.05;100.00
5595;BME280;1003;48.002;7.788;2023-06-22T03:36:08;98714.53;;;18.03;100.00
5595;BME280;1003;48.002;7.788;2023-06-22T03:38:35;98713.16;;;17.96;100.00
5595;BME280;1003;48.002;7.788;2023-06-22T03:41:02;98718.09;;;17.82;100.00
5595;BME280;1003;48.002;7.788;2023-06-22T03:43:30;98721.88;;;17.73;100.00
5595;BME280;1003;48.002;7.788;2023-06-22T03:45:57;98725.72;;;17.82;100.00
5595;BME280;1003;48.002;7.788;2023-06-22T03:48:24;98723.84;;;17.86;100.00
5595;BME280;1003;48.002;7.788;2023-06-22T03:50:51;98720.34;;;17.88;100.00
5595;BME280;1003;48.002;7.788;2023-06-22T03:53:18;98712.34;;;17.96;100.00
5595;BME280;1003;48.002;7.788;2023-06-22T03:55:49;98716.09;;;18.06;100.00
5595;BME280;1003;48.002;7.788;2023-06-22T03:58:17;98723.38;;;18.14;100.00
5595;BME280;1003;48.002;7.788;2023-06-22T04:00:46;98714.38;;;18.24;100.00
5595;BME280;1003;48.002;7.788;2023-06-22T04:03:13;98727.47;;;18.33;100.00
5595;BME280;1003;48.002;7.788;2023-06-22T04:05:40;98740.72;;;18.40;100.00
5595;BME280;1003;48.002;7.788;2023-06-22T04:08:08;98737.94;;;18.45;100.00
5595;BME280;1003;48.002;7.788;2023-06-22T04:10:35;98749.22;;;18.56;100.00
5595;BME280;1003;48.002;7.788;2023-06-22T04:13:02;98743.69;;;18.66;100.00
5595;BME280;1003;48.002;7.788;2023-06-22T04:15:29;98749.28;;;18.74;100.00
5595;BME280;1003;48.002;7.788;2023-06-22T04:17:58;98753.00;;;18.84;100.00
5595;BME280;1003;48.002;7.788;2023-06-22T04:20:25;98754.06;;;18.80;100.00
5595;BME280;1003;48.002;7.788;2023-06-22T04:22:52;98744.72;;;18.96;100.00
5595;BME280;1003;48.002;7.788;2023-06-22T04:25:20;98737.13;;;19.12;100.00
5595;BME280;1003;48.002;7.788;2023-06-22T04:27:48;98740.06;;;19.20;100.00
5595;BME280;1003;48.002;7.788;2023-06-22T04:30:15;98741.91;;;19.34;100.00
5595;BME280;1003;48.002;7.788;2023-06-22T04:32:43;98740.34;;;19.47;100.00
5595;BME280;1003;48.002;7.788;2023-06-22T04:35:11;98734.28;;;19.65;100.00
5595;BME280;1003;48.002;7.788;2023-06-22T04:37:39;98736.59;;;19.70;100.00
5595;BME280;1003;48.002;7.788;2023-06-22T04:40:07;98725.97;;;19.78;100.00
5595;BME280;1003;48.002;7.788;2023-06-22T04:42:35;98726.66;;;19.96;100.00
5595;BME280;1003;48.002;7.788;2023-06-22T04:45:03;98720.19;;;20.20;100.00
5595;BME280;1003;48.002;7.788;2023-06-22T04:47:31;98710.09;;;20.63;100.00
5595;BME280;1003;48.002;7.788;2023-06-22T04:49:58;98692.47;;;21.01;100.00
5595;BME280;1003;48.002;7.788;2023-06-22T04:52:26;98678.41;;;21.37;100.00
5595;BME280;1003;48.002;7.788;2023-06-22T04:54:53;98665.41;;;21.67;100.00
5595;BME280;1003;48.002;7.788;2023-06-22T04:57:25;98629.44;;;22.08;100.00
5595;BME280;1003;48.002;7.788;2023-06-22T04:59:58;98530.63;;;22.44;100.00
5595;BME280;1003;48.002;7.788;2023-06-22T05:02:42;98439.91;;;22.59;100.00
5595;BME280;1003;48.002;7.788;2023-06-22T05:05:10;98438.16;;;22.84;100.00
5595;BME280;1003;48.002;7.788;2023-06-22T05:07:43;98473.94;;;23.09;100.00
5595;BME280;1003;48.002;7.788;2023-06-22T05:10:11;98455.56;;;23.26;100.00
5595;BME280;1003;48.002;7.788;2023-06-22T05:12:40;98484.66;;;23.61;100.00
5595;BME280;1003;48.002;7.788;2023-06-22T05:15:08;98409.09;;;23.87;100.00
5595;BME280;1003;48.002;7.788;2023-06-22T05:17:36;98413.63;;;23.61;100.00
5595;BME280;1003;48.002;7.788;2023-06-22T05:20:09;98394.28;;;24.02;100.00
5595;BME280;1003;48.002;7.788;2023-06-22T05:22:37;98418.31;;;24.01;100.00
5595;BME280;1003;48.002;7.788;2023-06-22T05:25:09;98429.97;;;23.94;100.00
5595;BME280;1003;48.002;7.788;2023-06-22T05:27:36;98434.28;;;23.93;100.00
5595;BME280;1003;48.002;7.788;2023-06-22T05:30:07;98435.47;;;24.00;100.00
5595;BME280;1003;48.002;7.788;2023-06-22T05:32:34;98445.91;;;24.42;100.00
5595;BME280;1003;48.002;7.788;2023-06-22T05:35:02;98448.13;;;24.47;100.00
5595;BME280;1003;48.002;7.788;2023-06-22T05:37:29;98451.47;;;24.58;100.00
5595;BME280;1003;48.002;7.788;2023-06-22T05:39:56;98470.03;;;24.62;100.00
5595;BME280;1003;48.002;7.788;2023-06-22T05:42:25;98463.75;;;24.55;100.00
5595;BME280;1003;48.002;7.788;2023-06-22T05:44:52;98466.69;;;24.50;100.00
5595;BME280;1003;48.002;7.788;2023-06-22T05:47:20;98462.63;;;25.01;100.00
5595;BME280;1003;48.002;7.788;2023-06-22T05:49:48;98450.03;;;24.98;100.00
5595;BME280;1003;48.002;7.788;2023-06-22T05:52:15;98447.56;;;25.28;100.00
5595;BME280;1003;48.002;7.788;2023-06-22T05:54:42;98449.88;;;25.52;100.00
5595;BME280;1003;48.002;7.788;2023-06-22T05:57:09;98456.13;;;25.59;100.00
5595;BME280;1003;48.002;7.788;2023-06-22T05:59:37;98470.16;;;25.25;100.00
5595;BME280;1003;48.002;7.788;2023-06-22T06:02:05;98482.22;;;25.55;100.00
5595;BME280;1003;48.002;7.788;2023-06-22T06:04:32;98497.06;;;25.83;100.00
5595;BME280;1003;48.002;7.788;2023-06-22T06:06:59;98494.50;;;25.93;100.00
5595;BME280;1003;48.002;7.788;2023-06-22T06:09:26;98513.72;;;26.10;100.00
5595;BME280;1003;48.002;7.788;2023-06-22T06:11:53;98518.91;;;25.68;100.00
5595;BME280;1003;48.002;7.788;2023-06-22T06:14:20;98519.50;;;25.39;100.00
5595;BME280;1003;48.002;7.788;2023-06-22T06:16:50;98548.84;;;25.48;100.00
5595;BME280;1003;48.002;7.788;2023-06-22T06:19:17;98547.66;;;25.94;100.00
5595;BME280;1003;48.002;7.788;2023-06-22T06:21:43;98537.34;;;25.73;100.00
5595;BME280;1003;48.002;7.788;2023-06-22T06:24:12;98539.84;;;26.05;100.00
5595;BME280;1003;48.002;7.788;2023-06-22T06:26:39;98545.09;;;26.75;100.00
5595;BME280;1003;48.002;7.788;2023-06-22T06:29:06;98545.00;;;27.15;100.00
5595;BME280;1003;48.002;7.788;2023-06-22T06:31:33;98551.06;;;26.85;100.00
5595;BME280;1003;48.002;7.788;2023-06-22T06:34:01;98558.47;;;27.18;100.00
5595;BME280;1003;48.002;7.788;2023-06-22T06:36:29;98547.03;;;27.21;100.00
5595;BME280;1003;48.002;7.788;2023-06-22T06:38:56;98564.94;;;27.03;100.00
5595;BME280;1003;48.002;7.788;2023-06-22T06:41:23;98578.22;;;26.39;100.00
5595;BME280;1003;48.002;7.788;2023-06-22T06:43:50;98615.16;;;25.98;100.00
5595;BME280;1003;48.002;7.788;2023-06-22T06:46:17;98639.28;;;25.97;100.00
5595;BME280;1003;48.002;7.788;2023-06-22T06:48:45;98656.44;;;25.86;100.00
5595;BME280;1003;48.002;7.788;2023-06-22T06:51:13;98678.72;;;25.76;100.00
5595;BME280;1003;48.002;7.788;2023-06-22T06:53:40;98691.50;;;25.55;100.00
5595;BME280;1003;48.002;7.788;2023-06-22T06:56:07;98700.13;;;25.22;100.00
5595;BME280;1003;48.002;7.788;2023-06-22T06:58:36;98692.19;;;24.80;100.00
5595;BME280;1003;48.002;7.788;2023-06-22T07:01:03;98681.34;;;24.43;100.00
5595;BME280;1003;48.002;7.788;2023-06-22T07:03:30;98665.50;;;24.25;100.00
5595;BME280;1003;48.002;7.788;2023-06-22T07:05:59;98663.41;;;24.30;100.00
5595;BME280;1003;48.002;7.788;2023-06-22T07:08:27;98670.94;;;24.67;100.00
5595;BME280;1003;48.002;7.788;2023-06-22T07:10:54;98647.25;;;25.94;100.00
5595;BME280;1003;48.002;7.788;2023-06-22T07:13:22;98607.34;;;27.20;100.00
5595;BME280;1003;48.002;7.788;2023-06-22T07:15:49;98596.19;;;27.10;100.00
5595;BME280;1003;48.002;7.788;2023-06-22T07:18:16;98611.59;;;26.71;100.00
5595;BME280;1003;48.002;7.788;2023-06-22T07:20:43;98636.59;;;26.50;100.00
5595;BME280;1003;48.002;7.788;2023-06-22T07:23:10;98627.78;;;26.42;100.00
5595;BME280;1003;48.002;7.788;2023-06-22T07:25:38;98620.50;;;26.36;100.00
5595;BME280;1003;48.002;7.788;2023-06-22T07:28:07;98640.38;;;26.25;100.00
5595;BME280;1003;48.002;7.788;2023-06-22T07:30:34;98662.03;;;25.59;100.00
5595;BME280;1003;48.002;7.788;2023-06-22T07:33:01;98673.25;;;25.26;100.00
5595;BME280;1003;48.002;7.788;2023-06-22T07:35:30;98687.75;;;25.16;100.00
5595;BME280;1003;48.002;7.788;2023-06-22T07:37:57;98704.63;;;25.09;100.00
5595;BME280;1003;48.002;7.788;2023-06-22T07:40:24;98692.69;;;25.08;100.00
5595;BME280;1003;48.002;7.788;2023-06-22T07:42:53;98650.69;;;24.96;100.00
5595;BME280;1003;48.002;7.788;2023-06-22T07:45:20;98637.50;;;25.01;100.00
5595;BME280;1003;48.002;7.788;2023-06-22T07:47:47;98627.19;;;25.01;100.00
5595;BME280;1003;48.002;7.788;2023-06-22T07:50:14;98638.34;;;25.65;100.00
5595;BME280;1003;48.002;7.788;2023-06-22T07:52:41;98645.56;;;26.86;100.00
5595;BME280;1003;48.002;7.788;2023-06-22T07:55:08;98606.81;;;27.75;100.00
5595;BME280;1003;48.002;7.788;2023-06-22T07:57:35;98589.81;;;28.56;100.00
5595;BME280;1003;48.002;7.788;2023-06-22T08:00:06;98558.88;;;29.10;100.00
5595;BME280;1003;48.002;7.788;2023-06-22T08:02:41;98582.88;;;28.57;100.00
5595;BME280;1003;48.002;7.788;2023-06-22T08:05:09;98599.78;;;28.51;100.00
5595;BME280;1003;48.002;7.788;2023-06-22T08:07:37;98594.38;;;28.72;100.00
5595;BME280;1003;48.002;7.788;2023-06-22T08:10:06;98588.00;;;28.94;100.00
5595;BME280;1003;48.002;7.788;2023-06-22T08:12:34;98580.09;;;29.13;100.00
5595;BME280;1003;48.002;7.788;2023-06-22T08:15:01;98559.00;;;28.90;100.00
5595;BME280;1003;48.002;7.788;2023-06-22T08:17:30;98556.09;;;28.58;100.00
5595;BME280;1003;48.002;7.788;2023-06-22T08:19:57;98546.84;;;28.73;100.00
5595;BME280;1003;48.002;7.788;2023-06-22T08:22:24;98562.25;;;28.74;100.00
5595;BME280;1003;48.002;7.788;2023-06-22T08:24:51;98557.44;;;28.80;100.00
5595;BME280;1003;48.002;7.788;2023-06-22T08:27:18;98563.81;;;28.85;100.00
5595;BME280;1003;48.002;7.788;2023-06-22T08:29:47;98554.63;;;28.91;100.00
5595;BME280;1003;48.002;7.788;2023-06-22T08:32:15;98536.97;;;29.22;100.00
5595;BME280;1003;48.002;7.788;2023-06-22T08:34:43;98535.22;;;29.66;100.00
5595;BME280;1003;48.002;7.788;2023-06-22T08:37:11;98522.09;;;29.94;100.00
5595;BME280;1003;48.002;7.788;2023-06-22T08:39:38;98507.81;;;30.24;100.00
5595;BME280;1003;48.002;7.788;2023-06-22T08:42:06;98489.31;;;30.86;100.00
5595;BME280;1003;48.002;7.788;2023-06-22T08:44:33;98497.75;;;31.04;100.00
5595;BME280;1003;48.002;7.788;2023-06-22T08:47:00;98498.88;;;30.93;100.00
5595;BME280;1003;48.002;7.788;2023-06-22T08:49:28;98487.22;;;31.05;100.00
5595;BME280;1003;48.002;7.788;2023-06-22T08:51:56;98489.47;;;31.49;100.00
5595;BME280;1003;48.002;7.788;2023-06-22T08:54:23;98486.38;;;32.01;100.00
5595;BME280;1003;48.002;7.788;2023-06-22T08:56:50;98488.19;;;31.13;100.00
5595;BME280;1003;48.002;7.788;2023-06-22T08:59:17;98506.03;;;30.91;100.00
5595;BME280;1003;48.002;7.788;2023-06-22T09:01:44;98513.66;;;31.01;100.00
5595;BME280;1003;48.002;7.788;2023-06-22T09:04:14;98521.38;;;30.60;100.00
5595;BME280;1003;48.002;7.788;2023-06-22T09:06:41;98527.63;;;30.33;100.00
5595;BME280;1003;48.002;7.788;2023-06-22T09:09:14;98525.47;;;30.20;100.00
5595;BME280;1003;48.002;7.788;2023-06-22T09:11:41;98523.50;;;30.14;100.00
5595;BME280;1003;48.002;7.788;2023-06-22T09:14:08;98516.59;;;30.39;100.00
5595;BME280;1003;48.002;7.788;2023-06-22T09:16:35;98542.16;;;30.68;100.00
5595;BME280;1003;48.002;7.788;2023-06-22T09:19:02;98556.81;;;31.18;100.00
5595;BME280;1003;48.002;7.788;2023-06-22T09:21:30;98578.72;;;31.07;100.00
5595;BME280;1003;48.002;7.788;2023-06-22T09:23:57;98568.19;;;31.58;100.00
5595;BME280;1003;48.002;7.788;2023-06-22T09:26:26;98588.13;;;31.74;100.00
5595;BME280;1003;48.002;7.788;2023-06-22T09:28:53;98627.75;;;31.19;100.00
5595;BME280;1003;48.002;7.788;2023-06-22T09:31:20;98623.75;;;30.40;100.00
5595;BME280;1003;48.002;7.788;2023-06-22T09:33:52;98625.63;;;31.06;100.00
5595;BME280;1003;48.002;7.788;2023-06-22T09:36:20;98636.31;;;30.95;100.00
5595;BME280;1003;48.002;7.788;2023-06-22T09:38:48;98627.41;;;30.29;100.00
5595;BME280;1003;48.002;7.788;2023-06-22T09:41:21;98620.41;;;30.90;100.00
5595;BME280;1003;48.002;7.788;2023-06-22T09:43:50;98646.31;;;31.65;100.00
5595;BME280;1003;48.002;7.788;2023-06-22T09:46:17;98663.06;;;31.86;100.00
5595;BME280;1003;48.002;7.788;2023-06-22T09:48:47;98675.38;;;32.01;100.00
5595;BME280;1003;48.002;7.788;2023-06-22T09:51:14;98668.41;;;31.85;100.00
5595;BME280;1003;48.002;7.788;2023-06-22T09:53:41;98641.59;;;31.52;100.00
5595;BME280;1003;48.002;7.788;2023-06-22T09:56:09;98646.47;;;31.39;100.00
5595;BME280;1003;48.002;7.788;2023-06-22T09:58:40;98651.97;;;31.52;100.00
5595;BME280;1003;48.002;7.788;2023-06-22T10:01:09;98647.44;;;31.46;100.00
5595;BME280;1003;48.002;7.788;2023-06-22T10:03:37;98645.81;;;31.85;100.00
5595;BME280;1003;48.002;7.788;2023-06-22T10:06:04;98650.22;;;31.93;100.00
5595;BME280;1003;48.002;7.788;2023-06-22T10:08:31;98649.50;;;32.24;100.00
5595;BME280;1003;48.002;7.788;2023-06-22T10:10:58;98662.59;;;32.55;100.00
5595;BME280;1003;48.002;7.788;2023-06-22T10:13:25;98661.53;;;32.25;100.00
5595;BME280;1003;48.002;7.788;2023-06-22T10:15:52;98658.00;;;31.60;100.00
5595;BME280;1003;48.002;7.788;2023-06-22T10:18:21;98653.91;;;32.07;100.00
5595;BME280;1003;48.002;7.788;2023-06-22T10:20:50;98652.00;;;31.93;100.00
5595;BME280;1003;48.002;7.788;2023-06-22T10:23:18;98636.53;;;31.75;100.00
5595;BME280;1003;48.002;7.788;2023-06-22T10:25:45;98644.28;;;31.09;100.00
5595;BME280;1003;48.002;7.788;2023-06-22T10:28:12;98626.97;;;31.43;100.00
5595;BME280;1003;48.002;7.788;2023-06-22T10:30:39;98640.31;;;31.97;100.00
5595;BME280;1003;48.002;7.788;2023-06-22T10:33:08;98675.47;;;32.48;100.00
5595;BME280;1003;48.002;7.788;2023-06-22T10:35:36;98695.59;;;32.54;100.00
5595;BME280;1003;48.002;7.788;2023-06-22T10:38:05;98701.03;;;32.36;100.00
5595;BME280;1003;48.002;7.788;2023-06-22T10:40:32;98707.03;;;32.37;100.00
5595;BME280;1003;48.002;7.788;2023-06-22T10:42:59;98706.19;;;32.45;100.00
5595;BME280;1003;48.002;7.788;2023-06-22T10:45:26;98736.81;;;32.10;100.00
5595;BME280;1003;48.002;7.788;2023-06-22T10:47:54;98746.03;;;32.12;100.00
5595;BME280;1003;48.002;7.788;2023-06-22T10:50:21;98737.94;;;32.24;100.00
5595;BME280;1003;48.002;7.788;2023-06-22T10:52:51;98744.66;;;32.90;100.00
5595;BME280;1003;48.002;7.788;2023-06-22T10:55:18;98750.69;;;32.74;100.00
5595;BME280;1003;48.002;7.788;2023-06-22T10:57:45;98749.44;;;32.54;100.00
5595;BME280;1003;48.002;7.788;2023-06-22T11:00:14;98735.38;;;32.71;100.00
5595;BME280;1003;48.002;7.788;2023-06-22T11:02:41;98726.28;;;33.14;100.00
5595;BME280;1003;48.002;7.788;2023-06-22T11:05:09;98748.34;;;32.87;100.00
5595;BME280;1003;48.002;7.788;2023-06-22T11:07:37;98747.44;;;32.88;100.00
5595;BME280;1003;48.002;7.788;2023-06-22T11:10:07;98744.94;;;32.87;100.00
5595;BME280;1003;48.002;7.788;2023-06-22T11:12:34;98743.16;;;32.40;100.00
5595;BME280;1003;48.002;7.788;2023-06-22T11:15:02;98731.53;;;32.59;100.00
5595;BME280;1003;48.002;7.788;2023-06-22T11:17:29;98743.88;;;32.73;100.00
5595;BME280;1003;48.002;7.788;2023-06-22T11:19:56;98760.50;;;33.11;100.00
5595;BME280;1003;48.002;7.788;2023-06-22T11:22:24;98790.31;;;33.48;100.00
5595;BME280;1003;48.002;7.788;2023-06-22T11:24:51;98805.16;;;33.71;100.00
5595;BME280;1003;48.002;7.788;2023-06-22T11:27:20;98807.25;;;33.75;100.00
5595;BME280;1003;48.002;7.788;2023-06-22T11:29:47;98798.97;;;32.93;100.00
5595;BME280;1003;48.002;7.788;2023-06-22T11:32:14;98803.16;;;33.10;100.00
5595;BME280;1003;48.002;7.788;2023-06-22T11:34:41;98801.63;;;33.24;100.00
5595;BME280;1003;48.002;7.788;2023-06-22T11:37:08;98801.25;;;33.43;100.00
5595;BME280;1003;48.002;7.788;2023-06-22T11:39:35;98793.25;;;33.45;100.00
5595;BME280;1003;48.002;7.788;2023-06-22T11:42:02;98797.97;;;33.73;100.00
5595;BME280;1003;48.002;7.788;2023-06-22T11:44:30;98788.41;;;33.96;100.00
5595;BME280;1003;48.002;7.788;2023-06-22T11:46:57;98781.88;;;33.92;100.00
5595;BME280;1003;48.002;7.788;2023-06-22T11:49:26;98772.66;;;33.81;100.00
5595;BME280;1003;48.002;7.788;2023-06-22T11:51:53;98764.16;;;33.25;100.00
5595;BME280;1003;48.002;7.788;2023-06-22T11:54:23;98762.72;;;33.23;100.00
5595;BME280;1003;48.002;7.788;2023-06-22T11:56:50;98748.59;;;33.17;100.00
5595;BME280;1003;48.002;7.788;2023-06-22T11:59:17;98749.84;;;32.90;100.00
5595;BME280;1003;48.002;7.788;2023-06-22T12:01:46;98752.94;;;32.94;100.00
5595;BME280;1003;48.002;7.788;2023-06-22T12:04:14;98751.28;;;33.01;100.00
5595;BME280;1003;48.002;7.788;2023-06-22T12:06:41;98751.69;;;32.65;100.00
5595;BME280;1003;48.002;7.788;2023-06-22T12:09:09;98760.78;;;32.61;100.00
5595;BME280;1003;48.002;7.788;2023-06-22T12:11:37;98772.22;;;32.52;100.00
5595;BME280;1003;48.002;7.788;2023-06-22T12:14:04;98769.78;;;32.42;100.00
5595;BME280;1003;48.002;7.788;2023-06-22T12:16:32;98780.09;;;31.52;100.00
5595;BME280;1003;48.002;7.788;2023-06-22T12:19:00;98776.34;;;31.47;100.00
5595;BME280;1003;48.002;7.788;2023-06-22T12:21:27;98782.22;;;31.15;100.00
5595;BME280;1003;48.002;7.788;2023-06-22T12:23:55;98789.75;;;31.26;100.00
5595;BME280;1003;48.002;7.788;2023-06-22T12:26:22;98790.47;;;31.44;100.00
5595;BME280;1003;48.002;7.788;2023-06-22T12:28:49;98773.50;;;31.24;100.00
5595;BME280;1003;48.002;7.788;2023-06-22T12:31:18;98767.94;;;31.10;100.00
5595;BME280;1003;48.002;7.788;2023-06-22T12:33:45;98765.69;;;30.81;100.00
5595;BME280;1003;48.002;7.788;2023-06-22T12:36:13;98761.00;;;30.33;100.00
5595;BME280;1003;48.002;7.788;2023-06-22T12:38:42;98755.59;;;30.26;100.00
5595;BME280;1003;48.002;7.788;2023-06-22T12:41:10;98739.34;;;29.98;100.00
5595;BME280;1003;48.002;7.788;2023-06-22T12:43:37;98740.16;;;29.99;100.00
5595;BME280;1003;48.002;7.788;2023-06-22T12:46:04;98736.63;;;30.08;100.00
5595;BME280;1003;48.002;7.788;2023-06-22T12:48:31;98735.97;;;30.06;100.00
5595;BME280;1003;48.002;7.788;2023-06-22T12:50:58;98747.31;;;30.05;100.00
5595;BME280;1003;48.002;7.788;2023-06-22T12:53:27;98766.88;;;29.99;100.00
5595;BME280;1003;48.002;7.788;2023-06-22T12:55:54;98773.22;;;30.05;100.00
5595;BME280;1003;48.002;7.788;2023-06-22T12:58:21;98779.69;;;30.01;100.00
5595;BME280;1003;48.002;7.788;2023-06-22T13:00:49;98783.28;;;30.08;100.00
5595;BME280;1003;48.002;7.788;2023-06-22T13:03:16;98789.97;;;30.11;100.00
5595;BME280;1003;48.002;7.788;2023-06-22T13:05:43;98797.31;;;30.33;100.00
5595;BME280;1003;48.002;7.788;2023-06-22T13:08:11;98797.31;;;30.33;100.00
5595;BME280;1003;48.002;7.788;2023-06-22T13:10:39;98797.84;;;30.63;100.00
5595;BME280;1003;48.002;7.788;2023-06-22T13:13:06;98798.34;;;30.66;100.00
5595;BME280;1003;48.002;7.788;2023-06-22T13:15:35;98798.88;;;30.70;100.00